createdAt,value
2022-12-25T00:00:48.425Z,3.00
2022-12-25T00:03:14.996Z,2.60
2022-12-25T00:05:41.421Z,2.40
2022-12-25T00:08:07.776Z,2.30
2022-12-25T00:10:44.548Z,3.13
2022-12-25T00:13:11.689Z,3.30
2022-12-25T00:15:40.985Z,2.70
2022-12-25T00:18:07.492Z,3.42
2022-12-25T00:20:34.418Z,3.20
2022-12-25T00:23:00.929Z,3.20
2022-12-25T00:25:27.534Z,3.30
2022-12-25T00:27:54.101Z,3.40
2022-12-25T00:30:20.709Z,3.65
2022-12-25T00:32:47.296Z,5.27
2022-12-25T00:35:14.811Z,4.30
2022-12-25T00:37:41.363Z,3.20
2022-12-25T00:40:08.418Z,4.60
2022-12-25T00:42:35.041Z,5.60
2022-12-25T00:45:01.673Z,3.67
2022-12-25T00:47:28.257Z,3.58
2022-12-25T00:49:55.372Z,4.05
2022-12-25T00:52:21.907Z,3.95
2022-12-25T00:54:48.411Z,4.20
2022-12-25T00:57:15.164Z,3.27
2022-12-25T00:59:41.539Z,3.10
2022-12-25T01:02:23.482Z,3.25
2022-12-25T01:04:52.606Z,3.17
2022-12-25T01:07:19.912Z,3.47
2022-12-25T01:10:05.589Z,3.27
2022-12-25T01:12:34.087Z,3.50
2022-12-25T01:15:01.047Z,3.28
2022-12-25T01:17:27.548Z,3.38
2022-12-25T01:19:54.059Z,3.53
2022-12-25T01:22:20.389Z,3.40
2022-12-25T01:24:47.083Z,2.80
2022-12-25T01:27:13.757Z,3.22
2022-12-25T01:29:40.399Z,2.92
2022-12-25T01:32:07.215Z,3.00
2022-12-25T01:34:34.408Z,3.00
2022-12-25T01:37:01.063Z,2.97
2022-12-25T01:39:27.562Z,2.90
2022-12-25T01:41:54.035Z,2.75
2022-12-25T01:44:35.637Z,3.35
2022-12-25T01:47:06.986Z,2.50
2022-12-25T01:49:38.948Z,4.22
2022-12-25T01:52:11.254Z,4.25
2022-12-25T01:54:50.616Z,3.90
2022-12-25T01:57:22.424Z,4.68
2022-12-25T01:59:49.976Z,4.23
2022-12-25T02:02:16.683Z,4.03
2022-12-25T02:04:52.121Z,4.60
2022-12-25T02:07:22.888Z,4.93
2022-12-25T02:09:50.169Z,4.60
2022-12-25T02:12:28.313Z,4.70
2022-12-25T02:15:05.001Z,3.47
2022-12-25T02:18:19.736Z,4.60
2022-12-25T02:20:59.799Z,4.47
2022-12-25T02:23:37.944Z,4.93
2022-12-25T02:26:17.456Z,3.87
2022-12-25T02:29:02.758Z,4.07
2022-12-25T02:31:43.077Z,4.20
2022-12-25T02:34:41.893Z,4.00
2022-12-25T02:37:19.467Z,2.30
2022-12-25T02:40:18.427Z,2.40
2022-12-25T02:43:23.727Z,2.92
2022-12-25T02:46:21.404Z,2.95
2022-12-25T02:49:16.679Z,2.83
2022-12-25T02:52:05.588Z,3.30
2022-12-25T02:55:00.329Z,2.73
2022-12-25T02:57:50.750Z,2.75
2022-12-25T03:00:35.870Z,3.08
2022-12-25T03:03:24.273Z,2.40
2022-12-25T03:06:15.232Z,2.47
2022-12-25T03:08:45.021Z,2.60
2022-12-25T03:11:31.140Z,2.92
2022-12-25T03:14:21.863Z,3.00
2022-12-25T03:16:53.047Z,2.67
2022-12-25T03:19:41.477Z,2.47
2022-12-25T03:22:30.841Z,2.80
2022-12-25T03:25:16.044Z,2.50
2022-12-25T03:27:44.291Z,2.70
2022-12-25T03:30:29.867Z,3.13
2022-12-25T03:33:36.782Z,2.55
2022-12-25T03:36:15.226Z,2.80
2022-12-25T03:39:16.353Z,2.88
2022-12-25T03:42:13.838Z,2.80
2022-12-25T03:45:17.527Z,2.50
2022-12-25T03:48:08.445Z,2.42
2022-12-25T03:50:59.287Z,3.10
2022-12-25T03:54:01.714Z,3.03
2022-12-25T03:56:49.298Z,3.58
2022-12-25T03:59:39.093Z,3.35
2022-12-25T04:02:24.653Z,3.25
2022-12-25T04:05:09.686Z,3.63
2022-12-25T04:07:54.927Z,4.45
2022-12-25T04:10:50.771Z,4.18
2022-12-25T04:13:35.555Z,4.32
2022-12-25T04:16:20.630Z,4.10
2022-12-25T04:19:05.561Z,3.90
2022-12-25T04:21:50.926Z,4.00
2022-12-25T04:24:36.086Z,3.92
2022-12-25T04:27:21.363Z,4.15
2022-12-25T04:30:06.543Z,3.83
2022-12-25T04:32:51.686Z,4.00
2022-12-25T04:35:36.836Z,4.30
2022-12-25T04:38:03.362Z,4.00
2022-12-25T04:40:29.914Z,4.05
2022-12-25T04:42:56.453Z,4.45
2022-12-25T04:45:23.171Z,4.10
2022-12-25T04:47:49.704Z,3.80
2022-12-25T04:50:16.303Z,4.00
2022-12-25T04:52:42.802Z,3.72
2022-12-25T04:55:10.498Z,4.38
2022-12-25T04:57:36.893Z,4.63
2022-12-25T05:00:05.638Z,4.40
2022-12-25T05:02:32.599Z,4.28
2022-12-25T05:04:59.076Z,4.40
2022-12-25T05:07:25.440Z,5.20
2022-12-25T05:09:51.922Z,4.93
2022-12-25T05:12:18.432Z,4.28
2022-12-25T05:14:44.919Z,4.47
2022-12-25T05:17:11.399Z,4.80
2022-12-25T05:19:37.732Z,4.75
2022-12-25T05:22:04.303Z,4.37
2022-12-25T05:24:30.962Z,4.47
2022-12-25T05:26:57.531Z,5.03
2022-12-25T05:29:24.024Z,4.20
2022-12-25T05:31:50.651Z,4.57
2022-12-25T05:34:17.227Z,3.20
2022-12-25T05:36:43.752Z,3.67
2022-12-25T05:39:10.124Z,3.80
2022-12-25T05:41:36.621Z,3.35
2022-12-25T05:44:05.966Z,3.20
2022-12-25T05:46:32.524Z,3.60
2022-12-25T05:48:59.087Z,4.00
2022-12-25T05:51:26.220Z,3.60
2022-12-25T05:53:52.721Z,3.97
2022-12-25T05:56:19.218Z,3.95
2022-12-25T05:58:45.553Z,4.17
2022-12-25T06:01:14.671Z,3.65
2022-12-25T06:03:41.326Z,3.88
2022-12-25T06:06:08.254Z,4.72
2022-12-25T06:08:35.202Z,4.13
2022-12-25T06:11:06.841Z,4.13
2022-12-25T06:13:34.643Z,4.70
2022-12-25T06:16:08.968Z,5.05
2022-12-25T06:18:41.127Z,4.70
2022-12-25T06:21:12.433Z,5.10
2022-12-25T06:23:39.839Z,5.80
2022-12-25T06:26:12.741Z,5.75
2022-12-25T06:28:39.267Z,5.90
2022-12-25T06:31:24.713Z,5.00
2022-12-25T06:33:51.579Z,5.72
2022-12-25T06:36:25.844Z,5.23
2022-12-25T06:38:53.581Z,4.70
2022-12-25T06:41:22.669Z,5.50
2022-12-25T06:43:54.508Z,5.18
2022-12-25T06:46:22.279Z,5.22
2022-12-25T06:48:49.979Z,5.80
2022-12-25T06:51:18.319Z,5.70
2022-12-25T06:53:45.081Z,5.07
2022-12-25T06:56:15.669Z,5.80
2022-12-25T06:58:51.122Z,5.35
2022-12-25T07:01:27.244Z,5.80
2022-12-25T07:03:57.403Z,7.18
2022-12-25T07:06:24.120Z,6.22
2022-12-25T07:08:50.615Z,5.68
2022-12-25T07:11:17.315Z,6.40
2022-12-25T07:13:43.991Z,7.20
2022-12-25T07:16:12.215Z,7.13
2022-12-25T07:18:39.005Z,6.63
2022-12-25T07:21:10.867Z,7.15
2022-12-25T07:23:37.457Z,6.85
2022-12-25T07:26:04.624Z,6.57
2022-12-25T07:28:31.729Z,6.40
2022-12-25T07:31:03.199Z,6.38
2022-12-25T07:33:29.810Z,6.47
2022-12-25T07:35:56.375Z,6.75
2022-12-25T07:38:22.743Z,6.93
2022-12-25T07:40:49.273Z,6.32
2022-12-25T07:43:15.978Z,5.85
2022-12-25T07:45:42.606Z,5.88
2022-12-25T07:48:15.296Z,5.78
2022-12-25T07:50:43.156Z,6.43
2022-12-25T07:53:09.643Z,9.40
2022-12-25T07:55:36.208Z,7.85
2022-12-25T07:58:02.642Z,8.98
2022-12-25T08:00:32.786Z,8.50
2022-12-25T08:03:00.163Z,7.90
2022-12-25T08:05:26.975Z,8.23
2022-12-25T08:07:57.767Z,9.10
2022-12-25T08:10:24.752Z,7.90
2022-12-25T08:12:52.140Z,8.57
2022-12-25T08:15:18.670Z,8.63
2022-12-25T08:17:45.059Z,8.52
2022-12-25T08:20:11.969Z,8.15
2022-12-25T08:22:38.449Z,8.00
2022-12-25T08:25:05.256Z,9.40
2022-12-25T08:27:32.027Z,8.40
2022-12-25T08:29:58.630Z,8.10
2022-12-25T08:32:25.338Z,7.05
2022-12-25T08:34:51.841Z,8.18
2022-12-25T08:37:18.425Z,9.77
2022-12-25T08:39:44.966Z,7.47
2022-12-25T08:42:11.493Z,7.18
2022-12-25T08:44:38.093Z,6.40
2022-12-25T08:47:04.865Z,7.05
2022-12-25T08:49:31.407Z,6.03
2022-12-25T08:51:58.049Z,6.40
2022-12-25T08:54:25.326Z,6.25
2022-12-25T08:56:53.334Z,9.52
2022-12-25T08:59:21.661Z,8.05
2022-12-25T09:01:48.119Z,6.05
2022-12-25T09:04:15.045Z,5.10
2022-12-25T09:06:41.517Z,5.38
2022-12-25T09:09:07.892Z,5.25
2022-12-25T09:11:34.472Z,6.55
2022-12-25T09:14:00.995Z,6.18
2022-12-25T09:16:27.774Z,5.17
2022-12-25T09:18:56.500Z,6.10
2022-12-25T09:21:23.016Z,5.47
2022-12-25T09:23:49.547Z,6.20
2022-12-25T09:26:18.334Z,5.28
2022-12-25T09:28:50.539Z,4.90
2022-12-25T09:31:18.958Z,4.65
2022-12-25T09:33:45.385Z,5.30
2022-12-25T09:36:12.209Z,6.07
2022-12-25T09:38:38.779Z,5.88
2022-12-25T09:41:47.312Z,4.87
2022-12-25T09:44:20.697Z,4.72
2022-12-25T09:46:53.169Z,5.32
2022-12-25T09:49:35.716Z,5.28
2022-12-25T09:52:11.929Z,5.97
2022-12-25T09:54:58.400Z,5.43
2022-12-25T09:57:26.235Z,5.93
2022-12-25T09:59:56.430Z,6.38
2022-12-25T10:02:45.980Z,5.88
2022-12-25T10:05:40.849Z,4.60
2022-12-25T10:08:47.441Z,4.53
2022-12-25T10:11:16.987Z,4.90
2022-12-25T10:14:02.086Z,5.50
2022-12-25T10:16:38.256Z,4.90
2022-12-25T10:19:17.768Z,4.78
2022-12-25T10:21:44.442Z,4.77
2022-12-25T10:24:35.885Z,4.90
2022-12-25T10:27:14.809Z,4.70
2022-12-25T10:29:42.638Z,4.93
2022-12-25T10:32:10.464Z,4.45
2022-12-25T10:34:40.986Z,4.70
2022-12-25T10:37:10.491Z,5.38
2022-12-25T10:39:42.337Z,7.13
2022-12-25T10:42:30.751Z,5.32
2022-12-25T10:45:03.367Z,4.80
2022-12-25T10:47:32.821Z,4.50
2022-12-25T10:50:01.185Z,4.70
2022-12-25T10:52:29.072Z,5.15
2022-12-25T10:54:56.387Z,4.60
2022-12-25T10:57:25.047Z,4.97
2022-12-25T10:59:56.908Z,4.63
2022-12-25T11:02:27.815Z,4.57
2022-12-25T11:05:07.308Z,4.70
2022-12-25T11:07:46.756Z,4.93
2022-12-25T11:10:34.601Z,4.45
2022-12-25T11:13:02.628Z,4.43
2022-12-25T11:15:43.135Z,4.35
2022-12-25T11:18:19.166Z,4.40
2022-12-25T11:20:54.044Z,3.88
2022-12-25T11:23:22.519Z,4.00
2022-12-25T11:25:56.350Z,3.83
2022-12-25T11:28:24.246Z,3.97
2022-12-25T11:30:56.549Z,3.72
2022-12-25T11:33:29.150Z,3.85
2022-12-25T11:35:58.070Z,3.88
2022-12-25T11:38:25.338Z,3.60
2022-12-25T11:40:55.242Z,3.72
2022-12-25T11:43:23.411Z,3.72
2022-12-25T11:46:08.818Z,3.85
2022-12-25T11:48:43.029Z,4.35
2022-12-25T11:51:09.969Z,4.00
2022-12-25T11:53:52.776Z,4.13
2022-12-25T11:56:23.204Z,3.88
2022-12-25T11:58:55.369Z,4.13
2022-12-25T12:01:37.144Z,3.72
2022-12-25T12:04:12.294Z,4.40
2022-12-25T12:07:00.534Z,4.30
2022-12-25T12:10:05.590Z,4.13
2022-12-25T12:13:06.087Z,4.18
2022-12-25T12:15:43.690Z,4.07
2022-12-25T12:18:21.079Z,4.20
2022-12-25T12:21:03.042Z,4.68
2022-12-25T12:23:33.071Z,3.83
2022-12-25T12:26:00.508Z,4.93
2022-12-25T12:28:37.134Z,4.47
2022-12-25T12:31:08.370Z,5.20
2022-12-25T12:33:43.820Z,4.50
2022-12-25T12:36:14.682Z,4.78
2022-12-25T12:38:43.673Z,4.55
2022-12-25T12:41:12.531Z,4.28
2022-12-25T12:43:43.128Z,4.10
2022-12-25T12:46:30.604Z,4.22
2022-12-25T12:49:17.673Z,3.80
2022-12-25T12:51:44.522Z,3.90
2022-12-25T12:54:23.348Z,4.15
2022-12-25T12:57:05.095Z,4.13
2022-12-25T12:59:43.555Z,3.65
2022-12-25T13:02:25.198Z,3.78
2022-12-25T13:05:08.134Z,3.70
2022-12-25T13:07:56.585Z,3.92
2022-12-25T13:10:33.940Z,3.80
2022-12-25T13:13:12.302Z,3.90
2022-12-25T13:15:39.428Z,3.25
2022-12-25T13:18:09.787Z,3.60
2022-12-25T13:20:55.013Z,4.18
2022-12-25T13:23:33.406Z,3.37
2022-12-25T13:26:06.128Z,3.63
2022-12-25T13:28:36.863Z,4.18
2022-12-25T13:31:06.142Z,3.30
2022-12-25T13:33:33.493Z,3.75
2022-12-25T13:36:00.032Z,3.00
2022-12-25T13:38:28.761Z,3.30
2022-12-25T13:41:15.530Z,3.03
2022-12-25T13:43:44.180Z,2.83
2022-12-25T13:46:15.711Z,3.05
2022-12-25T13:48:42.975Z,3.03
2022-12-25T13:51:16.159Z,3.25
2022-12-25T13:53:43.809Z,3.47
2022-12-25T13:56:15.591Z,3.00
2022-12-25T13:58:43.127Z,3.33
2022-12-25T14:01:11.748Z,3.00
2022-12-25T14:03:46.617Z,2.95
2022-12-25T14:06:30.304Z,3.00
2022-12-25T14:08:58.772Z,2.70
2022-12-25T14:11:28.361Z,2.53
2022-12-25T14:14:00.854Z,2.03
2022-12-25T14:16:28.316Z,2.28
2022-12-25T14:18:58.189Z,2.70
2022-12-25T14:21:38.666Z,2.72
2022-12-25T14:24:21.126Z,2.92
2022-12-25T14:26:47.693Z,2.53
2022-12-25T14:29:23.669Z,2.75
2022-12-25T14:31:53.254Z,3.08
2022-12-25T14:34:26.284Z,3.55
2022-12-25T14:36:53.356Z,3.05
2022-12-25T14:39:28.299Z,3.43
2022-12-25T14:41:54.718Z,2.38
2022-12-25T14:44:32.464Z,3.28
2022-12-25T14:47:15.596Z,2.75
2022-12-25T14:49:42.753Z,3.05
2022-12-25T14:52:18.042Z,3.60
2022-12-25T14:54:47.002Z,3.78
2022-12-25T14:57:20.223Z,3.83
2022-12-25T14:59:46.862Z,4.00
2022-12-25T15:02:19.388Z,4.10
2022-12-25T15:04:46.068Z,4.43
2022-12-25T15:07:28.797Z,4.13
2022-12-25T15:10:18.494Z,3.78
2022-12-25T15:12:41.961Z,3.60
2022-12-25T15:15:08.939Z,3.80
2022-12-25T15:17:42.115Z,4.17
2022-12-25T15:20:12.931Z,4.63
2022-12-25T15:23:10.102Z,4.10
2022-12-25T15:25:27.079Z,5.07
2022-12-25T15:27:53.647Z,4.68
2022-12-25T15:30:20.046Z,4.73
2022-12-25T15:32:46.898Z,4.78
2022-12-25T15:35:16.087Z,4.82
2022-12-25T15:37:42.654Z,4.07
2022-12-25T15:40:13.370Z,4.10
2022-12-25T15:42:41.070Z,4.40
2022-12-25T15:45:19.610Z,4.20
2022-12-25T15:47:47.642Z,4.30
2022-12-25T15:50:15.197Z,4.07
2022-12-25T15:52:42.257Z,4.00
2022-12-25T15:55:09.670Z,3.60
2022-12-25T15:57:37.882Z,4.53
2022-12-25T16:00:06.215Z,4.05
2022-12-25T16:02:32.950Z,4.05
2022-12-25T16:04:59.697Z,3.85
2022-12-25T16:07:27.562Z,3.70
2022-12-25T16:09:53.885Z,4.63
2022-12-25T16:12:20.853Z,4.53
2022-12-25T16:14:47.448Z,4.47
2022-12-25T16:17:15.419Z,4.50
2022-12-25T16:19:42.894Z,5.70
2022-12-25T16:22:14.301Z,5.28
2022-12-25T16:24:40.891Z,4.43
2022-12-25T16:27:07.464Z,5.25
2022-12-25T16:29:34.049Z,5.05
2022-12-25T16:32:00.624Z,5.13
2022-12-25T16:34:26.987Z,5.30
2022-12-25T16:36:53.576Z,5.68
2022-12-25T16:39:20.086Z,5.18
2022-12-25T16:41:46.572Z,4.95
2022-12-25T16:44:14.137Z,4.57
2022-12-25T16:46:40.972Z,5.25
2022-12-25T16:49:07.552Z,5.47
2022-12-25T16:51:34.215Z,5.57
2022-12-25T16:54:00.754Z,4.90
2022-12-25T16:56:28.660Z,5.67
2022-12-25T16:58:57.729Z,5.95
2022-12-25T17:01:25.221Z,6.00
2022-12-25T17:03:52.243Z,6.10
2022-12-25T17:06:23.325Z,5.97
2022-12-25T17:08:52.093Z,5.43
2022-12-25T17:11:23.558Z,5.70
2022-12-25T17:13:50.322Z,5.97
2022-12-25T17:16:20.156Z,6.00
2022-12-25T17:18:47.060Z,6.93
2022-12-25T17:21:14.844Z,6.20
2022-12-25T17:23:41.462Z,7.90
2022-12-25T17:26:08.054Z,8.48
2022-12-25T17:28:34.717Z,8.63
2022-12-25T17:31:09.597Z,7.60
2022-12-25T17:33:37.116Z,8.40
2022-12-25T17:36:06.364Z,8.73
2022-12-25T17:38:33.720Z,8.63
2022-12-25T17:41:02.947Z,9.95
2022-12-25T17:43:29.525Z,11.60
2022-12-25T17:45:55.867Z,10.27
2022-12-25T17:48:22.209Z,10.70
2022-12-25T17:50:48.860Z,10.23
2022-12-25T17:53:15.431Z,9.73
2022-12-25T17:55:42.342Z,9.90
2022-12-25T17:58:09.224Z,12.23
2022-12-25T18:00:37.308Z,12.60
2022-12-25T18:03:10.794Z,11.57
2022-12-25T18:05:38.235Z,10.60
2022-12-25T18:08:05.448Z,10.90
2022-12-25T18:10:37.073Z,11.70
2022-12-25T18:13:03.815Z,11.48
2022-12-25T18:15:30.296Z,13.02
2022-12-25T18:17:56.694Z,11.50
2022-12-25T18:20:23.538Z,12.85
2022-12-25T18:22:49.891Z,12.40
2022-12-25T18:25:16.256Z,12.85
2022-12-25T18:27:42.600Z,14.23
2022-12-25T18:30:10.033Z,14.13
2022-12-25T18:32:36.619Z,15.48
2022-12-25T18:35:03.359Z,16.03
2022-12-25T18:37:33.144Z,15.20
2022-12-25T18:40:04.626Z,14.30
2022-12-25T18:42:39.962Z,14.60
2022-12-25T18:45:09.059Z,15.98
2022-12-25T18:47:37.714Z,17.17
2022-12-25T18:50:05.807Z,15.23
2022-12-25T18:52:47.643Z,15.50
2022-12-25T18:55:17.672Z,14.68
2022-12-25T18:57:44.083Z,17.33
2022-12-25T19:00:10.808Z,16.37
2022-12-25T19:02:37.509Z,15.48
2022-12-25T19:05:05.587Z,14.23
2022-12-25T19:07:32.263Z,14.05
2022-12-25T19:09:58.921Z,13.63
2022-12-25T19:12:25.300Z,15.27
2022-12-25T19:14:51.769Z,16.30
2022-12-25T19:17:19.715Z,18.65
2022-12-25T19:19:46.088Z,23.77
2022-12-25T19:22:20.494Z,21.55
2022-12-25T19:24:46.871Z,17.53
2022-12-25T19:27:13.389Z,17.15
2022-12-25T19:29:41.075Z,20.45
2022-12-25T19:32:07.515Z,18.00
2022-12-25T19:34:35.703Z,18.08
2022-12-25T19:37:03.666Z,14.13
2022-12-25T19:39:29.967Z,17.02
2022-12-25T19:41:57.926Z,15.68
2022-12-25T19:44:24.586Z,15.02
2022-12-25T19:46:50.961Z,17.70
2022-12-25T19:49:17.622Z,16.27
2022-12-25T19:51:47.459Z,14.40
2022-12-25T19:54:15.804Z,16.52
2022-12-25T19:56:43.703Z,18.55
2022-12-25T19:59:12.283Z,16.27
2022-12-25T20:01:40.994Z,15.30
2022-12-25T20:04:09.520Z,16.15
2022-12-25T20:06:38.381Z,17.00
2022-12-25T20:09:15.028Z,16.23
2022-12-25T20:11:42.013Z,14.10
2022-12-25T20:14:10.217Z,13.47
2022-12-25T20:16:38.444Z,11.32
2022-12-25T20:19:07.566Z,13.40
2022-12-25T20:21:34.233Z,13.57
2022-12-25T20:24:01.208Z,12.48
2022-12-25T20:26:30.004Z,12.50
2022-12-25T20:28:57.370Z,12.98
2022-12-25T20:31:27.264Z,14.23
2022-12-25T20:34:00.009Z,12.25
2022-12-25T20:36:36.454Z,11.15
2022-12-25T20:39:05.195Z,9.47
2022-12-25T20:41:32.078Z,8.90
2022-12-25T20:44:01.865Z,8.35
2022-12-25T20:46:28.825Z,9.40
2022-12-25T20:48:55.487Z,10.02
2022-12-25T20:51:24.544Z,10.67
2022-12-25T20:53:51.403Z,9.43
2022-12-25T20:56:21.166Z,10.00
2022-12-25T20:58:49.028Z,9.48
2022-12-25T21:01:18.640Z,8.88
2022-12-25T21:03:46.632Z,10.00
2022-12-25T21:06:14.265Z,9.63
2022-12-25T21:08:41.149Z,12.27
2022-12-25T21:11:08.546Z,12.00
2022-12-25T21:13:37.867Z,11.40
2022-12-25T21:16:07.378Z,10.50
2022-12-25T21:18:33.985Z,11.93
2022-12-25T21:21:04.678Z,11.52
2022-12-25T21:23:32.073Z,9.80
2022-12-25T21:25:58.980Z,11.90
2022-12-25T21:28:30.091Z,11.27
2022-12-25T21:31:02.397Z,11.23
2022-12-25T21:33:47.767Z,10.98
2022-12-25T21:36:14.169Z,10.75
2022-12-25T21:38:41.888Z,10.52
2022-12-25T21:41:13.152Z,9.07
2022-12-25T21:43:44.784Z,9.55
2022-12-25T21:46:15.377Z,10.50
2022-12-25T21:48:42.582Z,8.88
2022-12-25T21:51:35.698Z,8.73
2022-12-25T21:54:02.755Z,8.40
2022-12-25T21:56:30.838Z,7.97
2022-12-25T21:59:02.630Z,8.25
2022-12-25T22:01:30.071Z,7.47
2022-12-25T22:04:01.657Z,7.10
2022-12-25T22:06:46.955Z,7.00
2022-12-25T22:09:13.455Z,5.82
2022-12-25T22:11:58.440Z,6.70
2022-12-25T22:14:51.102Z,5.80
2022-12-25T22:17:49.957Z,6.15
2022-12-25T22:20:21.423Z,6.40
2022-12-25T22:22:48.657Z,6.53
2022-12-25T22:25:15.576Z,5.80
2022-12-25T22:27:44.195Z,6.47
2022-12-25T22:30:34.367Z,5.45
2022-12-25T22:33:02.416Z,5.63
2022-12-25T22:35:28.783Z,5.85
2022-12-25T22:37:55.476Z,5.38
2022-12-25T22:40:21.983Z,5.60
2022-12-25T22:42:48.856Z,5.57
2022-12-25T22:45:15.727Z,5.57
2022-12-25T22:47:45.584Z,5.57
2022-12-25T22:50:14.479Z,6.18
2022-12-25T22:52:41.032Z,6.50
2022-12-25T22:55:09.832Z,5.97
2022-12-25T22:57:39.629Z,10.30
2022-12-25T23:00:08.683Z,11.35
2022-12-25T23:02:36.960Z,12.80
2022-12-25T23:05:06.271Z,7.80
2022-12-25T23:07:32.982Z,8.98
2022-12-25T23:10:01.462Z,9.27
2022-12-25T23:12:47.430Z,9.38
2022-12-25T23:15:14.127Z,7.90
2022-12-25T23:17:58.896Z,7.15
2022-12-25T23:20:44.445Z,5.00
2022-12-25T23:23:35.667Z,4.83
2022-12-25T23:26:09.207Z,5.13
2022-12-25T23:29:00.220Z,5.80
2022-12-25T23:31:35.877Z,7.43
2022-12-25T23:34:06.159Z,5.53
2022-12-25T23:36:33.155Z,4.70
2022-12-25T23:39:06.726Z,4.88
2022-12-25T23:41:35.913Z,5.05
2022-12-25T23:44:02.398Z,4.93
2022-12-25T23:46:28.990Z,4.75
2022-12-25T23:48:55.575Z,5.07
2022-12-25T23:51:22.091Z,4.72
2022-12-25T23:53:48.696Z,5.68
2022-12-25T23:56:15.345Z,5.20
2022-12-25T23:58:41.925Z,5.80
